createdAt,value
2018-02-04T00:00:24.470Z,1013.09
2018-02-04T00:01:24.495Z,1013.1
2018-02-04T00:02:24.401Z,1013.15
2018-02-04T00:03:24.505Z,1013.13
2018-02-04T00:04:24.493Z,1013.12
2018-02-04T00:05:24.417Z,1013.14
2018-02-04T00:06:24.411Z,1013.15
2018-02-04T00:07:24.421Z,1013.15
2018-02-04T00:08:24.488Z,1013.12
2018-02-04T00:09:24.481Z,1013.17
2018-02-04T00:10:24.533Z,1013.18
2018-02-04T00:11:24.390Z,1013.21
2018-02-04T00:12:24.874Z,1013.18
2018-02-04T00:13:24.445Z,1013.19
2018-02-04T00:14:24.474Z,1013.2
2018-02-04T00:15:24.455Z,1013.23
2018-02-04T00:16:24.450Z,1013.19
2018-02-04T00:17:24.432Z,1013.2
2018-02-04T00:18:24.475Z,1013.2
2018-02-04T00:19:24.432Z,1013.19
2018-02-04T00:20:24.443Z,1013.2
2018-02-04T00:21:24.437Z,1013.21
2018-02-04T00:22:24.507Z,1013.2
2018-02-04T00:23:24.442Z,1013.23
2018-02-04T00:24:24.507Z,1013.24
2018-02-04T00:25:24.453Z,1013.3
2018-02-04T00:26:24.420Z,1013.26
2018-02-04T00:27:24.416Z,1013.28
2018-02-04T00:28:24.527Z,1013.3
2018-02-04T00:29:24.609Z,1013.24
2018-02-04T00:30:24.714Z,1013.31
2018-02-04T00:31:24.638Z,1013.3
2018-02-04T00:32:24.632Z,1013.29
2018-02-04T00:33:24.549Z,1013.29
2018-02-04T00:34:24.577Z,1013.26
2018-02-04T00:35:24.637Z,1013.26
2018-02-04T00:36:24.560Z,1013.3
2018-02-04T00:37:24.624Z,1013.24
2018-02-04T00:38:24.635Z,1013.29
2018-02-04T00:39:24.611Z,1013.3
2018-02-04T00:40:24.643Z,1013.31
2018-02-04T00:41:24.626Z,1013.3
2018-02-04T00:42:24.636Z,1013.31
2018-02-04T00:43:24.589Z,1013.32
2018-02-04T00:44:24.585Z,1013.35
2018-02-04T00:45:24.615Z,1013.34
2018-02-04T00:46:24.599Z,1013.39
2018-02-04T00:47:24.664Z,1013.38
2018-02-04T00:48:24.613Z,1013.42
2018-02-04T00:49:24.592Z,1013.43
2018-02-04T00:50:24.627Z,1013.44
2018-02-04T00:51:24.542Z,1013.41
2018-02-04T00:52:24.611Z,1013.43
2018-02-04T00:53:24.526Z,1013.44
2018-02-04T00:54:24.601Z,1013.44
2018-02-04T00:55:24.596Z,1013.46
2018-02-04T00:56:24.535Z,1013.46
2018-02-04T00:57:24.562Z,1013.46
2018-02-04T00:58:24.568Z,1013.43
2018-02-04T00:59:24.591Z,1013.46
2018-02-04T01:00:24.810Z,1013.49
2018-02-04T01:01:24.662Z,1013.49
2018-02-04T01:02:24.701Z,1013.48
2018-02-04T01:03:24.689Z,1013.53
2018-02-04T01:04:24.788Z,1013.53
2018-02-04T01:05:24.681Z,1013.53
2018-02-04T01:06:24.827Z,1013.53
2018-02-04T01:07:24.664Z,1013.58
2018-02-04T01:08:24.648Z,1013.59
2018-02-04T01:09:24.655Z,1013.54
2018-02-04T01:10:24.674Z,1013.55
2018-02-04T01:11:24.722Z,1013.55
2018-02-04T01:12:24.779Z,1013.56
2018-02-04T01:13:24.719Z,1013.57
2018-02-04T01:14:24.756Z,1013.56
2018-02-04T01:15:24.731Z,1013.56
2018-02-04T01:16:25.270Z,1013.63
2018-02-04T01:17:24.689Z,1013.61
2018-02-04T01:18:24.703Z,1013.58
2018-02-04T01:19:24.703Z,1013.64
2018-02-04T01:20:24.714Z,1013.59
2018-02-04T01:21:25.032Z,1013.61
2018-02-04T01:22:24.709Z,1013.61
2018-02-04T01:23:24.676Z,1013.65
2018-02-04T01:24:24.643Z,1013.66
2018-02-04T01:25:24.702Z,1013.67
2018-02-04T01:26:24.672Z,1013.67
2018-02-04T01:27:24.657Z,1013.67
2018-02-04T01:28:24.664Z,1013.67
2018-02-04T01:29:24.662Z,1013.71
2018-02-04T01:30:24.701Z,1013.75
2018-02-04T01:31:24.787Z,1013.79
2018-02-04T01:32:24.770Z,1013.74
2018-02-04T01:33:24.827Z,1013.77
2018-02-04T01:34:24.774Z,1013.76
2018-02-04T01:35:24.775Z,1013.81
2018-02-04T01:36:24.813Z,1013.82
2018-02-04T01:37:24.862Z,1013.83
2018-02-04T01:38:24.857Z,1013.85
2018-02-04T01:39:24.807Z,1013.88
2018-02-04T01:40:24.773Z,1013.89
2018-02-04T01:41:24.742Z,1013.92
2018-02-04T01:42:24.759Z,1013.88
2018-02-04T01:43:24.811Z,1013.89
2018-02-04T01:44:24.804Z,1013.93
2018-02-04T01:45:24.803Z,1013.91
2018-02-04T01:46:24.845Z,1013.91
2018-02-04T01:47:24.836Z,1013.86
2018-02-04T01:48:24.782Z,1013.9
2018-02-04T01:49:24.840Z,1013.93
2018-02-04T01:50:24.838Z,1013.93
2018-02-04T01:51:24.849Z,1013.9
2018-02-04T01:52:24.836Z,1013.95
2018-02-04T01:53:24.782Z,1013.96
2018-02-04T01:54:24.768Z,1013.96
2018-02-04T01:55:24.828Z,1013.95
2018-02-04T01:56:24.789Z,1013.97
2018-02-04T01:57:24.795Z,1013.98
2018-02-04T01:58:24.793Z,1014
2018-02-04T01:59:24.830Z,1013.98
2018-02-04T02:00:24.790Z,1014
2018-02-04T02:01:24.988Z,1013.98
2018-02-04T02:02:24.878Z,1013.99
2018-02-04T02:03:24.897Z,1013.99
2018-02-04T02:04:24.895Z,1014.03
2018-02-04T02:05:24.910Z,1014.06
2018-02-04T02:06:25.194Z,1014
2018-02-04T02:07:24.877Z,1014.02
2018-02-04T02:08:24.954Z,1014.03
2018-02-04T02:09:24.923Z,1014.01
2018-02-04T02:10:24.897Z,1014.02
2018-02-04T02:11:25.061Z,1014.06
2018-02-04T02:12:24.927Z,1014.09
2018-02-04T02:13:24.919Z,1014.1
2018-02-04T02:14:24.992Z,1014.11
2018-02-04T02:15:24.882Z,1014.11
2018-02-04T02:16:24.928Z,1014.11
2018-02-04T02:17:24.909Z,1014.1
2018-02-04T02:18:24.918Z,1014.15
2018-02-04T02:19:24.927Z,1014.13
2018-02-04T02:20:24.982Z,1014.16
2018-02-04T02:21:24.850Z,1014.16
2018-02-04T02:22:24.868Z,1014.15
2018-02-04T02:23:24.942Z,1014.16
2018-02-04T02:24:24.895Z,1014.16
2018-02-04T02:25:24.873Z,1014.18
2018-02-04T02:26:24.893Z,1014.21
2018-02-04T02:27:24.923Z,1014.19
2018-02-04T02:28:24.904Z,1014.26
2018-02-04T02:29:24.904Z,1014.26
2018-02-04T02:30:24.957Z,1014.22
2018-02-04T02:31:25.123Z,1014.24
2018-02-04T02:32:25.021Z,1014.22
2018-02-04T02:33:25.003Z,1014.26
2018-02-04T02:34:25.023Z,1014.23
2018-02-04T02:35:25.030Z,1014.27
2018-02-04T02:36:25.033Z,1014.26
2018-02-04T02:37:25.058Z,1014.28
2018-02-04T02:38:25.096Z,1014.2
2018-02-04T02:39:25.021Z,1014.2
2018-02-04T02:40:25.032Z,1014.2
2018-02-04T02:41:25.080Z,1014.23
2018-02-04T02:42:25.020Z,1014.22
2018-02-04T02:43:25.103Z,1014.21
2018-02-04T02:44:25.065Z,1014.22
2018-02-04T02:45:25.004Z,1014.23
2018-02-04T02:46:25.048Z,1014.23
2018-02-04T02:47:25.120Z,1014.23
2018-02-04T02:48:25.006Z,1014.21
2018-02-04T02:49:24.973Z,1014.2
2018-02-04T02:50:25.074Z,1014.22
2018-02-04T02:51:25.010Z,1014.23
2018-02-04T02:52:25.165Z,1014.28
2018-02-04T02:53:24.967Z,1014.24
2018-02-04T02:54:25.011Z,1014.28
2018-02-04T02:55:25.027Z,1014.25
2018-02-04T02:56:24.997Z,1014.31
2018-02-04T02:57:25.099Z,1014.27
2018-02-04T02:58:25.047Z,1014.26
2018-02-04T02:59:25.046Z,1014.29
2018-02-04T03:00:25.378Z,1014.32
2018-02-04T03:01:24.327Z,1014.29
2018-02-04T03:02:24.380Z,1014.31
2018-02-04T03:03:24.306Z,1014.3
2018-02-04T03:04:24.329Z,1014.31
2018-02-04T03:05:24.357Z,1014.34
2018-02-04T03:06:24.314Z,1014.3
2018-02-04T03:07:24.278Z,1014.31
2018-02-04T03:08:24.297Z,1014.37
2018-02-04T03:09:24.313Z,1014.34
2018-02-04T03:10:24.288Z,1014.37
2018-02-04T03:11:24.360Z,1014.38
2018-02-04T03:12:24.636Z,1014.38
2018-02-04T03:13:24.964Z,1014.36
2018-02-04T03:14:24.300Z,1014.37
2018-02-04T03:15:24.323Z,1014.39
2018-02-04T03:16:24.415Z,1014.37
2018-02-04T03:17:24.278Z,1014.42
2018-02-04T03:18:24.326Z,1014.41
2018-02-04T03:19:24.333Z,1014.41
2018-02-04T03:20:24.285Z,1014.42
2018-02-04T03:21:24.380Z,1014.4
2018-02-04T03:22:24.295Z,1014.45
2018-02-04T03:23:24.367Z,1014.45
2018-02-04T03:24:24.481Z,1014.45
2018-02-04T03:25:24.384Z,1014.49
2018-02-04T03:26:24.309Z,1014.44
2018-02-04T03:27:24.366Z,1014.49
2018-02-04T03:28:24.296Z,1014.47
2018-02-04T03:29:24.448Z,1014.47
2018-02-04T03:30:24.301Z,1014.46
2018-02-04T03:31:24.368Z,1014.47
2018-02-04T03:32:24.392Z,1014.48
2018-02-04T03:33:24.436Z,1014.45
2018-02-04T03:34:24.467Z,1014.47
2018-02-04T03:35:25.346Z,1014.49
2018-02-04T03:36:24.383Z,1014.52
2018-02-04T03:37:24.351Z,1014.52
2018-02-04T03:38:24.464Z,1014.51
2018-02-04T03:39:24.346Z,1014.58
2018-02-04T03:40:24.389Z,1014.52
2018-02-04T03:41:24.438Z,1014.58
2018-02-04T03:42:24.434Z,1014.61
2018-02-04T03:43:24.315Z,1014.59
2018-02-04T03:44:24.403Z,1014.66
2018-02-04T03:45:24.383Z,1014.7
2018-02-04T03:46:24.412Z,1014.69
2018-02-04T03:47:24.380Z,1014.69
2018-02-04T03:48:24.352Z,1014.73
2018-02-04T03:49:24.370Z,1014.72
2018-02-04T03:50:24.367Z,1014.72
2018-02-04T03:51:24.411Z,1014.75
2018-02-04T03:52:24.407Z,1014.78
2018-02-04T03:53:24.373Z,1014.74
2018-02-04T03:54:24.437Z,1014.78
2018-02-04T03:55:24.501Z,1014.77
2018-02-04T03:56:24.397Z,1014.76
2018-02-04T03:57:24.360Z,1014.83
2018-02-04T03:58:24.420Z,1014.83
2018-02-04T03:59:24.365Z,1014.84
2018-02-04T04:00:24.460Z,1014.85
2018-02-04T04:01:24.377Z,1014.86
2018-02-04T04:02:24.355Z,1014.89
2018-02-04T04:03:24.381Z,1014.89
2018-02-04T04:04:24.360Z,1014.86
2018-02-04T04:05:24.402Z,1014.9
2018-02-04T04:06:24.388Z,1014.91
2018-02-04T04:07:24.396Z,1014.93
2018-02-04T04:08:24.408Z,1014.93
2018-02-04T04:09:24.457Z,1014.88
2018-02-04T04:10:24.374Z,1014.94
2018-02-04T04:11:24.421Z,1014.94
2018-02-04T04:12:24.358Z,1014.92
2018-02-04T04:13:24.355Z,1014.92
2018-02-04T04:14:24.364Z,1014.92
2018-02-04T04:15:24.356Z,1014.92
2018-02-04T04:16:24.381Z,1014.92
2018-02-04T04:17:24.393Z,1014.91
2018-02-04T04:18:24.446Z,1014.96
2018-02-04T04:19:24.348Z,1014.92
2018-02-04T04:20:24.388Z,1014.93
2018-02-04T04:21:24.317Z,1014.95
2018-02-04T04:22:24.354Z,1014.96
2018-02-04T04:23:24.363Z,1014.95
2018-02-04T04:24:24.330Z,1014.95
2018-02-04T04:25:24.412Z,1014.97
2018-02-04T04:26:24.353Z,1014.93
2018-02-04T04:27:24.294Z,1014.94
2018-02-04T04:28:24.450Z,1014.95
2018-02-04T04:29:24.444Z,1014.97
2018-02-04T04:30:24.365Z,1014.94
2018-02-04T04:31:24.416Z,1014.98
2018-02-04T04:32:24.383Z,1014.99
2018-02-04T04:33:24.453Z,1015.01
2018-02-04T04:34:24.535Z,1015.02
2018-02-04T04:35:24.547Z,1015.06
2018-02-04T04:38:24.490Z,1015.06
2018-02-04T04:39:24.511Z,1015.06
2018-02-04T04:40:24.466Z,1015.01
2018-02-04T04:41:24.535Z,1015.06
2018-02-04T04:42:24.526Z,1015.1
2018-02-04T04:43:24.513Z,1015.13
2018-02-04T04:44:24.483Z,1015.11
2018-02-04T04:45:24.474Z,1015.13
2018-02-04T04:46:24.526Z,1015.11
2018-02-04T04:47:24.539Z,1015.14
2018-02-04T04:48:24.481Z,1015.17
2018-02-04T04:49:24.491Z,1015.17
2018-02-04T04:50:24.512Z,1015.17
2018-02-04T04:51:24.542Z,1015.18
2018-02-04T04:52:24.546Z,1015.22
2018-02-04T04:53:24.450Z,1015.22
2018-02-04T04:54:24.540Z,1015.2
2018-02-04T04:55:24.481Z,1015.2
2018-02-04T04:56:24.441Z,1015.22
2018-02-04T04:57:24.494Z,1015.21
2018-02-04T04:58:24.516Z,1015.22
2018-02-04T04:59:24.484Z,1015.24
2018-02-04T05:00:24.480Z,1015.27
2018-02-04T05:01:24.433Z,1015.26
2018-02-04T05:02:24.524Z,1015.26
2018-02-04T05:03:24.562Z,1015.25
2018-02-04T05:04:24.619Z,1015.24
2018-02-04T05:05:24.548Z,1015.25
2018-02-04T05:06:24.548Z,1015.22
2018-02-04T05:07:24.642Z,1015.23
2018-02-04T05:08:24.661Z,1015.27
2018-02-04T05:09:24.641Z,1015.3
2018-02-04T05:10:24.646Z,1015.3
2018-02-04T05:11:24.594Z,1015.31
2018-02-04T05:12:24.655Z,1015.33
2018-02-04T05:14:24.608Z,1015.4
2018-02-04T05:15:24.571Z,1015.39
2018-02-04T05:16:24.649Z,1015.4
2018-02-04T05:17:24.641Z,1015.43
2018-02-04T05:18:24.562Z,1015.44
2018-02-04T05:19:24.626Z,1015.43
2018-02-04T05:20:24.683Z,1015.44
2018-02-04T05:21:24.600Z,1015.45
2018-02-04T05:22:24.580Z,1015.45
2018-02-04T05:23:24.644Z,1015.43
2018-02-04T05:24:24.636Z,1015.38
2018-02-04T05:25:24.644Z,1015.44
2018-02-04T05:26:24.640Z,1015.47
2018-02-04T05:27:24.576Z,1015.43
2018-02-04T05:28:24.565Z,1015.47
2018-02-04T05:29:24.565Z,1015.49
2018-02-04T05:30:24.557Z,1015.52
2018-02-04T05:31:24.698Z,1015.56
2018-02-04T05:32:24.572Z,1015.57
2018-02-04T05:33:24.653Z,1015.55
2018-02-04T05:34:24.798Z,1015.56
2018-02-04T05:35:24.749Z,1015.59
2018-02-04T05:36:24.737Z,1015.6
2018-02-04T05:37:24.696Z,1015.59
2018-02-04T05:38:24.710Z,1015.6
2018-02-04T05:39:24.846Z,1015.63
2018-02-04T05:40:24.761Z,1015.65
2018-02-04T05:41:24.685Z,1015.69
2018-02-04T05:42:24.683Z,1015.71
2018-02-04T05:43:24.679Z,1015.71
2018-02-04T05:44:24.780Z,1015.7
2018-02-04T05:45:24.946Z,1015.76
2018-02-04T05:46:24.702Z,1015.72
2018-02-04T05:47:24.760Z,1015.76
2018-02-04T05:48:24.705Z,1015.76
2018-02-04T05:49:24.712Z,1015.8
2018-02-04T05:50:24.784Z,1015.82
2018-02-04T05:51:24.722Z,1015.85
2018-02-04T05:52:24.739Z,1015.89
2018-02-04T05:53:24.756Z,1015.89
2018-02-04T05:54:24.864Z,1015.91
2018-02-04T05:55:24.781Z,1015.92
2018-02-04T05:56:24.737Z,1015.96
2018-02-04T05:57:24.795Z,1015.99
2018-02-04T05:58:24.777Z,1015.94
2018-02-04T05:59:24.712Z,1015.97
2018-02-04T06:00:24.979Z,1015.94
2018-02-04T06:01:24.733Z,1016
2018-02-04T06:02:24.769Z,1015.96
2018-02-04T06:03:24.724Z,1016
2018-02-04T06:04:24.834Z,1016.01
2018-02-04T06:05:24.801Z,1016.02
2018-02-04T06:06:24.940Z,1016.02
2018-02-04T06:07:24.813Z,1016.05
2018-02-04T06:08:24.807Z,1016.07
2018-02-04T06:09:24.826Z,1016.11
2018-02-04T06:10:24.833Z,1016.08
2018-02-04T06:11:24.818Z,1016.11
2018-02-04T06:12:24.841Z,1016.13
2018-02-04T06:13:24.781Z,1016.17
2018-02-04T06:14:24.776Z,1016.18
2018-02-04T06:15:24.763Z,1016.19
2018-02-04T06:16:24.784Z,1016.18
2018-02-04T06:17:24.794Z,1016.25
2018-02-04T06:18:24.853Z,1016.24
2018-02-04T06:19:24.859Z,1016.22
2018-02-04T06:20:24.800Z,1016.26
2018-02-04T06:21:24.847Z,1016.26
2018-02-04T06:22:24.789Z,1016.27
2018-02-04T06:23:24.854Z,1016.31
2018-02-04T06:24:24.893Z,1016.29
2018-02-04T06:25:24.949Z,1016.34
2018-02-04T06:26:24.828Z,1016.33
2018-02-04T06:27:24.884Z,1016.33
2018-02-04T06:28:24.820Z,1016.35
2018-02-04T06:29:24.842Z,1016.35
2018-02-04T06:30:24.809Z,1016.37
2018-02-04T06:31:24.819Z,1016.38
2018-02-04T06:32:24.788Z,1016.42
2018-02-04T06:33:24.853Z,1016.45
2018-02-04T06:34:24.886Z,1016.45
2018-02-04T06:35:24.979Z,1016.5
2018-02-04T06:36:24.875Z,1016.51
2018-02-04T06:37:24.917Z,1016.51
2018-02-04T06:38:24.997Z,1016.51
2018-02-04T06:39:24.975Z,1016.49
2018-02-04T06:40:24.985Z,1016.52
2018-02-04T06:41:24.934Z,1016.53
2018-02-04T06:42:24.960Z,1016.53
2018-02-04T06:43:25.025Z,1016.57
2018-02-04T06:44:24.947Z,1016.57
2018-02-04T06:45:25.095Z,1016.53
2018-02-04T06:46:24.992Z,1016.55
2018-02-04T06:47:24.935Z,1016.53
2018-02-04T06:48:25.009Z,1016.61
2018-02-04T06:49:24.951Z,1016.62
2018-02-04T06:50:24.955Z,1016.63
2018-02-04T06:51:25.011Z,1016.64
2018-02-04T06:52:24.937Z,1016.66
2018-02-04T06:53:24.941Z,1016.66
2018-02-04T06:54:24.903Z,1016.68
2018-02-04T06:55:24.913Z,1016.66
2018-02-04T06:56:24.936Z,1016.66
2018-02-04T06:57:25.070Z,1016.71
2018-02-04T06:58:24.934Z,1016.72
2018-02-04T06:59:25.144Z,1016.7
2018-02-04T07:00:24.950Z,1016.67
2018-02-04T07:01:24.997Z,1016.7
2018-02-04T07:02:24.970Z,1016.68
2018-02-04T07:03:24.982Z,1016.67
2018-02-04T07:04:25.014Z,1016.69
2018-02-04T07:05:25.049Z,1016.72
2018-02-04T07:06:25.016Z,1016.74
2018-02-04T07:07:25.008Z,1016.75
2018-02-04T07:08:25.101Z,1016.74
2018-02-04T07:09:25.027Z,1016.74
2018-02-04T07:10:25.033Z,1016.77
2018-02-04T07:11:25.106Z,1016.77
2018-02-04T07:12:25.125Z,1016.8
2018-02-04T07:13:25.026Z,1016.81
2018-02-04T07:14:25.133Z,1016.87
2018-02-04T07:15:25.054Z,1016.84
2018-02-04T07:16:25.179Z,1016.86
2018-02-04T07:17:25.057Z,1016.89
2018-02-04T07:18:25.026Z,1016.9
2018-02-04T07:19:25.055Z,1016.88
2018-02-04T07:20:25.113Z,1016.92
2018-02-04T07:21:25.003Z,1016.94
2018-02-04T07:22:25.054Z,1016.97
2018-02-04T07:23:25.006Z,1017.03
2018-02-04T07:24:25.060Z,1017
2018-02-04T07:25:24.999Z,1017.05
2018-02-04T07:26:25.060Z,1017.05
2018-02-04T07:27:25.066Z,1017.04
2018-02-04T07:28:25.096Z,1017.07
2018-02-04T07:29:25.013Z,1017.04
2018-02-04T07:30:25.087Z,1017.08
2018-02-04T07:31:25.014Z,1017.09
2018-02-04T07:32:25.068Z,1017.09
2018-02-04T07:33:25.058Z,1017.11
2018-02-04T07:34:25.026Z,1017.12
2018-02-04T07:35:25.091Z,1017.16
2018-02-04T07:36:24.118Z,1017.12
2018-02-04T07:37:24.128Z,1017.16
2018-02-04T07:38:24.135Z,1017.16
2018-02-04T07:39:24.126Z,1017.16
2018-02-04T07:40:24.296Z,1017.2
2018-02-04T07:41:24.200Z,1017.21
2018-02-04T07:42:24.130Z,1017.25
2018-02-04T07:43:24.150Z,1017.28
2018-02-04T07:44:24.126Z,1017.27
2018-02-04T07:45:24.148Z,1017.29
2018-02-04T07:46:24.116Z,1017.28
2018-02-04T07:47:24.176Z,1017.3
2018-02-04T07:48:24.147Z,1017.3
2018-02-04T07:49:24.152Z,1017.31
2018-02-04T07:50:24.139Z,1017.34
2018-02-04T07:51:24.177Z,1017.36
2018-02-04T07:52:24.092Z,1017.36
2018-02-04T07:53:24.409Z,1017.41
2018-02-04T07:54:24.187Z,1017.42
2018-02-04T07:55:24.192Z,1017.43
2018-02-04T07:56:24.098Z,1017.43
2018-02-04T07:57:24.152Z,1017.44
2018-02-04T07:58:24.136Z,1017.45
2018-02-04T07:59:24.181Z,1017.48
2018-02-04T08:00:24.104Z,1017.51
2018-02-04T08:01:24.161Z,1017.51
2018-02-04T08:02:24.145Z,1017.49
2018-02-04T08:03:24.156Z,1017.5
2018-02-04T08:04:24.121Z,1017.55
2018-02-04T08:05:24.160Z,1017.54
2018-02-04T08:06:24.284Z,1017.56
2018-02-04T08:07:24.121Z,1017.49
2018-02-04T08:08:24.185Z,1017.48
2018-02-04T08:09:24.188Z,1017.55
2018-02-04T08:10:24.202Z,1017.5
2018-02-04T08:11:24.183Z,1017.53
2018-02-04T08:12:24.283Z,1017.59
2018-02-04T08:13:24.363Z,1017.58
2018-02-04T08:14:24.403Z,1017.6
2018-02-04T08:15:24.129Z,1017.62
2018-02-04T08:16:24.169Z,1017.63
2018-02-04T08:17:24.242Z,1017.63
2018-02-04T08:18:24.194Z,1017.64
2018-02-04T08:19:24.368Z,1017.62
2018-02-04T08:20:24.185Z,1017.61
2018-02-04T08:21:24.194Z,1017.65
2018-02-04T08:22:24.127Z,1017.61
2018-02-04T08:23:24.219Z,1017.66
2018-02-04T08:24:24.226Z,1017.62
2018-02-04T08:25:24.208Z,1017.61
2018-02-04T08:26:24.197Z,1017.61
2018-02-04T08:27:24.195Z,1017.66
2018-02-04T08:28:24.156Z,1017.69
2018-02-04T08:29:24.132Z,1017.69
2018-02-04T08:30:24.143Z,1017.71
2018-02-04T08:31:24.237Z,1017.7
2018-02-04T08:32:24.230Z,1017.72
2018-02-04T08:33:24.185Z,1017.72
2018-02-04T08:34:24.183Z,1017.72
2018-02-04T08:35:24.174Z,1017.7
2018-02-04T08:36:24.256Z,1017.74
2018-02-04T08:37:24.205Z,1017.74
2018-02-04T08:38:24.229Z,1017.78
2018-02-04T08:39:24.219Z,1017.77
2018-02-04T08:40:24.268Z,1017.83
2018-02-04T08:41:24.244Z,1017.86
2018-02-04T08:42:24.186Z,1017.81
2018-02-04T08:43:24.244Z,1017.85
2018-02-04T08:44:24.205Z,1017.9
2018-02-04T08:45:24.336Z,1017.9
2018-02-04T08:46:24.296Z,1017.86
2018-02-04T08:47:24.257Z,1017.9
2018-02-04T08:48:24.234Z,1017.88
2018-02-04T08:49:24.318Z,1017.9
2018-02-04T08:50:24.237Z,1017.89
2018-02-04T08:51:24.242Z,1017.9
2018-02-04T08:52:24.238Z,1017.89
2018-02-04T08:53:24.269Z,1017.91
2018-02-04T08:54:24.178Z,1017.91
2018-02-04T08:55:24.259Z,1017.97
2018-02-04T08:56:24.217Z,1018
2018-02-04T08:57:24.225Z,1017.94
2018-02-04T08:58:24.248Z,1018
2018-02-04T08:59:24.232Z,1018
2018-02-04T09:00:24.282Z,1018.04
2018-02-04T09:01:24.246Z,1018.05
2018-02-04T09:02:24.419Z,1018.04
2018-02-04T09:03:24.266Z,1018.08
2018-02-04T09:04:24.226Z,1018.04
2018-02-04T09:05:24.244Z,1018.1
2018-02-04T09:06:24.223Z,1018.1
2018-02-04T09:07:24.272Z,1018.09
2018-02-04T09:08:24.374Z,1018.14
2018-02-04T09:09:24.381Z,1018.14
2018-02-04T09:10:24.370Z,1018.13
2018-02-04T09:11:24.434Z,1018.17
2018-02-04T09:12:24.469Z,1018.17
2018-02-04T09:13:24.334Z,1018.17
2018-02-04T09:14:24.362Z,1018.14
2018-02-04T09:15:24.374Z,1018.18
2018-02-04T09:16:24.376Z,1018.21
2018-02-04T09:17:24.389Z,1018.24
2018-02-04T09:18:24.415Z,1018.16
2018-02-04T09:19:24.387Z,1018.21
2018-02-04T09:20:24.648Z,1018.24
2018-02-04T09:21:24.486Z,1018.26
2018-02-04T09:22:24.502Z,1018.28
2018-02-04T09:23:24.399Z,1018.31
2018-02-04T09:24:24.429Z,1018.3
2018-02-04T09:25:24.491Z,1018.31
2018-02-04T09:26:24.405Z,1018.34
2018-02-04T09:27:24.411Z,1018.34
2018-02-04T09:28:24.381Z,1018.34
2018-02-04T09:29:24.424Z,1018.36
2018-02-04T09:30:24.442Z,1018.37
2018-02-04T09:31:24.428Z,1018.37
2018-02-04T09:32:24.443Z,1018.41
2018-02-04T09:33:24.597Z,1018.4
2018-02-04T09:34:24.470Z,1018.44
2018-02-04T09:35:24.466Z,1018.45
2018-02-04T09:36:24.488Z,1018.41
2018-02-04T09:37:24.389Z,1018.48
2018-02-04T09:38:24.416Z,1018.48
2018-02-04T09:39:24.452Z,1018.51
2018-02-04T09:40:24.420Z,1018.5
2018-02-04T09:41:24.375Z,1018.52
2018-02-04T09:42:24.481Z,1018.51
2018-02-04T09:43:24.414Z,1018.5
2018-02-04T09:44:24.459Z,1018.55
2018-02-04T09:45:24.460Z,1018.53
2018-02-04T09:46:24.428Z,1018.56
2018-02-04T09:47:24.468Z,1018.54
2018-02-04T09:48:24.507Z,1018.6
2018-02-04T09:49:24.435Z,1018.61
2018-02-04T09:50:24.479Z,1018.62
2018-02-04T09:51:24.415Z,1018.62
2018-02-04T09:52:24.477Z,1018.67
2018-02-04T09:53:24.455Z,1018.64
2018-02-04T09:54:24.430Z,1018.68
2018-02-04T09:55:24.694Z,1018.68
2018-02-04T09:56:24.427Z,1018.65
2018-02-04T09:57:24.632Z,1018.68
2018-02-04T09:58:24.538Z,1018.7
2018-02-04T09:59:24.482Z,1018.73
2018-02-04T10:00:24.409Z,1018.72
2018-02-04T10:01:24.416Z,1018.72
2018-02-04T10:02:24.419Z,1018.77
2018-02-04T10:03:24.465Z,1018.79
2018-02-04T10:04:24.437Z,1018.81
2018-02-04T10:05:24.765Z,1018.81
2018-02-04T10:06:24.677Z,1018.83
2018-02-04T10:07:24.687Z,1018.83
2018-02-04T10:08:24.542Z,1018.83
2018-02-04T10:09:24.471Z,1018.84
2018-02-04T10:10:24.348Z,1018.85
2018-02-04T10:11:24.430Z,1018.89
2018-02-04T10:12:24.927Z,1018.92
2018-02-04T10:13:24.362Z,1018.91
2018-02-04T10:14:24.416Z,1018.97
2018-02-04T10:15:24.409Z,1018.93
2018-02-04T10:16:24.351Z,1018.97
2018-02-04T10:17:24.391Z,1018.97
2018-02-04T10:18:24.377Z,1019
2018-02-04T10:19:24.356Z,1018.99
2018-02-04T10:20:24.395Z,1018.96
2018-02-04T10:21:24.396Z,1018.97
2018-02-04T10:22:24.377Z,1018.98
2018-02-04T10:23:24.460Z,1019.04
2018-02-04T10:24:32.479Z,1019.04
2018-02-04T10:25:24.456Z,1019.06
2018-02-04T10:26:24.454Z,1019.07
2018-02-04T10:27:24.391Z,1019.06
2018-02-04T10:28:24.483Z,1019.06
2018-02-04T10:29:24.419Z,1019.09
2018-02-04T10:30:24.453Z,1019.07
2018-02-04T10:31:24.517Z,1019.12
2018-02-04T10:32:24.420Z,1019.11
2018-02-04T10:33:28.601Z,1019.08
2018-02-04T10:34:24.420Z,1019.1
2018-02-04T10:35:24.466Z,1019.15
2018-02-04T10:36:24.475Z,1019.13
2018-02-04T10:37:24.395Z,1019.12
2018-02-04T10:38:24.403Z,1019.19
2018-02-04T10:39:24.458Z,1019.16
2018-02-04T10:40:24.551Z,1019.21
2018-02-04T10:41:24.555Z,1019.15
2018-02-04T10:42:24.511Z,1019.18
2018-02-04T10:43:24.563Z,1019.2
2018-02-04T10:44:24.536Z,1019.25
2018-02-04T10:45:24.537Z,1019.26
2018-02-04T10:46:24.527Z,1019.26
2018-02-04T10:47:24.525Z,1019.23
2018-02-04T10:48:24.548Z,1019.33
2018-02-04T10:49:24.631Z,1019.32
2018-02-04T10:50:24.601Z,1019.42
2018-02-04T10:51:24.629Z,1019.35
2018-02-04T10:52:24.585Z,1019.39
2018-02-04T10:53:24.552Z,1019.39
2018-02-04T10:54:24.598Z,1019.37
2018-02-04T10:55:24.580Z,1019.39
2018-02-04T10:56:24.540Z,1019.39
2018-02-04T10:57:24.531Z,1019.43
2018-02-04T10:58:24.524Z,1019.4
2018-02-04T10:59:24.547Z,1019.36
2018-02-04T11:00:24.584Z,1019.41
2018-02-04T11:01:24.516Z,1019.4
2018-02-04T11:02:24.514Z,1019.44
2018-02-04T11:03:24.534Z,1019.42
2018-02-04T11:04:24.522Z,1019.49
2018-02-04T11:05:24.532Z,1019.51
2018-02-04T11:06:24.539Z,1019.45
2018-02-04T11:07:24.535Z,1019.43
2018-02-04T11:08:24.519Z,1019.47
2018-02-04T11:09:24.535Z,1019.46
2018-02-04T11:10:24.578Z,1019.46
2018-02-04T11:11:24.617Z,1019.47
2018-02-04T11:12:24.559Z,1019.48
2018-02-04T11:13:24.578Z,1019.5
2018-02-04T11:14:24.592Z,1019.5
2018-02-04T11:15:24.613Z,1019.49
2018-02-04T11:16:25.088Z,1019.46
2018-02-04T11:17:24.666Z,1019.5
2018-02-04T11:18:24.596Z,1019.49
2018-02-04T11:19:24.617Z,1019.55
2018-02-04T11:20:24.591Z,1019.54
2018-02-04T11:21:24.622Z,1019.57
2018-02-04T11:22:24.594Z,1019.55
2018-02-04T11:23:24.602Z,1019.6
2018-02-04T11:24:24.619Z,1019.61
2018-02-04T11:25:24.611Z,1019.6
2018-02-04T11:26:24.609Z,1019.58
2018-02-04T11:27:24.581Z,1019.57
2018-02-04T11:28:24.572Z,1019.64
2018-02-04T11:29:24.584Z,1019.66
2018-02-04T11:30:24.586Z,1019.66
2018-02-04T11:31:24.649Z,1019.62
2018-02-04T11:32:24.673Z,1019.67
2018-02-04T11:33:24.624Z,1019.67
2018-02-04T11:34:24.563Z,1019.72
2018-02-04T11:35:24.569Z,1019.68
2018-02-04T11:36:24.600Z,1019.69
2018-02-04T11:37:24.576Z,1019.68
2018-02-04T11:38:24.578Z,1019.69
2018-02-04T11:39:24.653Z,1019.64
2018-02-04T11:40:24.640Z,1019.67
2018-02-04T11:41:24.561Z,1019.67
2018-02-04T11:42:24.731Z,1019.68
2018-02-04T11:43:24.356Z,1019.71
2018-02-04T11:44:24.314Z,1019.68
2018-02-04T11:45:24.436Z,1019.68
2018-02-04T11:46:24.320Z,1019.7
2018-02-04T11:47:24.369Z,1019.69
2018-02-04T11:48:24.335Z,1019.67
2018-02-04T11:49:24.356Z,1019.73
2018-02-04T11:50:24.371Z,1019.75
2018-02-04T11:51:24.325Z,1019.73
2018-02-04T11:52:24.373Z,1019.73
2018-02-04T11:53:24.325Z,1019.75
2018-02-04T11:54:24.359Z,1019.8
2018-02-04T11:55:24.329Z,1019.74
2018-02-04T11:56:24.370Z,1019.82
2018-02-04T11:57:24.340Z,1019.79
2018-02-04T11:58:24.344Z,1019.75
2018-02-04T11:59:24.361Z,1019.74
2018-02-04T12:00:24.330Z,1019.74
2018-02-04T12:01:24.314Z,1019.78
2018-02-04T12:02:24.382Z,1019.77
2018-02-04T12:03:24.315Z,1019.77
2018-02-04T12:04:24.371Z,1019.78
2018-02-04T12:05:24.730Z,1019.81
2018-02-04T12:06:24.366Z,1019.82
2018-02-04T12:07:24.388Z,1019.81
2018-02-04T12:08:24.335Z,1019.82
2018-02-04T12:09:24.403Z,1019.83
2018-02-04T12:10:24.680Z,1019.84
2018-02-04T12:11:24.330Z,1019.86